sensor_id;sensor_type;location;lat;lon;timestamp;P1;durP1;ratioP1;P2;durP2;ratioP2
20734;SDS011;10528;52.124;5.196;2023-07-29T00:01:36;1.80;;;0.80;;
20734;SDS011;10528;52.124;5.196;2023-07-29T00:04:06;2.10;;;0.60;;
20734;SDS011;10528;52.124;5.196;2023-07-29T00:06:35;2.05;;;0.70;;
20734;SDS011;10528;52.124;5.196;2023-07-29T00:09:03;1.70;;;0.80;;
20734;SDS011;10528;52.124;5.196;2023-07-29T00:11:30;1.90;;;0.77;;
20734;SDS011;10528;52.124;5.196;2023-07-29T00:13:59;1.83;;;0.73;;
20734;SDS011;10528;52.124;5.196;2023-07-29T00:16:27;2.17;;;0.50;;
20734;SDS011;10528;52.124;5.196;2023-07-29T00:18:54;0.73;;;0.55;;
20734;SDS011;10528;52.124;5.196;2023-07-29T00:21:21;1.80;;;0.70;;
20734;SDS011;10528;52.124;5.196;2023-07-29T00:23:48;1.30;;;0.68;;
20734;SDS011;10528;52.124;5.196;2023-07-29T00:26:15;2.00;;;0.60;;
20734;SDS011;10528;52.124;5.196;2023-07-29T00:28:42;2.85;;;0.90;;
20734;SDS011;10528;52.124;5.196;2023-07-29T00:31:09;1.88;;;0.85;;
20734;SDS011;10528;52.124;5.196;2023-07-29T00:33:37;3.80;;;1.00;;
20734;SDS011;10528;52.124;5.196;2023-07-29T00:36:04;9.27;;;1.20;;
20734;SDS011;10528;52.124;5.196;2023-07-29T00:38:31;2.60;;;0.77;;
20734;SDS011;10528;52.124;5.196;2023-07-29T00:40:58;2.90;;;0.80;;
20734;SDS011;10528;52.124;5.196;2023-07-29T00:43:26;2.00;;;0.60;;
20734;SDS011;10528;52.124;5.196;2023-07-29T00:45:53;2.60;;;0.80;;
20734;SDS011;10528;52.124;5.196;2023-07-29T00:48:23;1.90;;;0.82;;
20734;SDS011;10528;52.124;5.196;2023-07-29T00:50:52;1.20;;;0.80;;
20734;SDS011;10528;52.124;5.196;2023-07-29T00:53:20;2.03;;;1.13;;
20734;SDS011;10528;52.124;5.196;2023-07-29T00:55:49;2.08;;;0.70;;
20734;SDS011;10528;52.124;5.196;2023-07-29T00:58:16;4.18;;;1.20;;
20734;SDS011;10528;52.124;5.196;2023-07-29T01:00:43;2.47;;;1.08;;
20734;SDS011;10528;52.124;5.196;2023-07-29T01:03:10;3.85;;;1.23;;
20734;SDS011;10528;52.124;5.196;2023-07-29T01:05:40;2.60;;;1.08;;
20734;SDS011;10528;52.124;5.196;2023-07-29T01:08:38;2.03;;;1.02;;
20734;SDS011;10528;52.124;5.196;2023-07-29T01:11:31;2.10;;;1.10;;
20734;SDS011;10528;52.124;5.196;2023-07-29T01:21:03;4.80;;;1.60;;
20734;SDS011;10528;52.124;5.196;2023-07-29T01:23:37;4.82;;;1.52;;
20734;SDS011;10528;52.124;5.196;2023-07-29T01:26:04;4.82;;;1.95;;
20734;SDS011;10528;52.124;5.196;2023-07-29T01:28:32;5.50;;;1.40;;
20734;SDS011;10528;52.124;5.196;2023-07-29T01:31:04;4.43;;;2.20;;
20734;SDS011;10528;52.124;5.196;2023-07-29T01:33:44;3.63;;;1.90;;
20734;SDS011;10528;52.124;5.196;2023-07-29T01:36:22;7.22;;;2.17;;
20734;SDS011;10528;52.124;5.196;2023-07-29T01:38:56;4.32;;;1.92;;
20734;SDS011;10528;52.124;5.196;2023-07-29T01:41:24;5.32;;;2.10;;
20734;SDS011;10528;52.124;5.196;2023-07-29T01:43:52;4.10;;;2.03;;
20734;SDS011;10528;52.124;5.196;2023-07-29T01:46:22;5.70;;;2.33;;
20734;SDS011;10528;52.124;5.196;2023-07-29T01:48:49;7.85;;;2.50;;
20734;SDS011;10528;52.124;5.196;2023-07-29T01:51:16;6.68;;;2.20;;
20734;SDS011;10528;52.124;5.196;2023-07-29T01:53:43;3.95;;;2.28;;
20734;SDS011;10528;52.124;5.196;2023-07-29T01:56:10;7.75;;;2.60;;
20734;SDS011;10528;52.124;5.196;2023-07-29T01:58:40;5.80;;;2.60;;
20734;SDS011;10528;52.124;5.196;2023-07-29T02:01:07;7.18;;;2.63;;
20734;SDS011;10528;52.124;5.196;2023-07-29T02:03:34;8.55;;;3.00;;
20734;SDS011;10528;52.124;5.196;2023-07-29T02:06:01;5.88;;;2.97;;
20734;SDS011;10528;52.124;5.196;2023-07-29T02:08:28;6.32;;;2.75;;
20734;SDS011;10528;52.124;5.196;2023-07-29T02:10:55;7.55;;;2.72;;
20734;SDS011;10528;52.124;5.196;2023-07-29T02:13:22;6.22;;;2.67;;
20734;SDS011;10528;52.124;5.196;2023-07-29T02:15:49;6.05;;;2.85;;
20734;SDS011;10528;52.124;5.196;2023-07-29T02:18:16;7.07;;;2.65;;
20734;SDS011;10528;52.124;5.196;2023-07-29T02:20:44;5.57;;;3.25;;
20734;SDS011;10528;52.124;5.196;2023-07-29T02:23:15;5.97;;;3.00;;
20734;SDS011;10528;52.124;5.196;2023-07-29T02:25:45;7.15;;;2.42;;
20734;SDS011;10528;52.124;5.196;2023-07-29T02:28:12;4.30;;;2.33;;
20734;SDS011;10528;52.124;5.196;2023-07-29T02:30:40;6.25;;;2.80;;
20734;SDS011;10528;52.124;5.196;2023-07-29T02:33:10;5.03;;;2.63;;
20734;SDS011;10528;52.124;5.196;2023-07-29T02:35:38;6.55;;;2.65;;
20734;SDS011;10528;52.124;5.196;2023-07-29T02:38:05;4.95;;;2.15;;
20734;SDS011;10528;52.124;5.196;2023-07-29T02:40:32;4.85;;;2.50;;
20734;SDS011;10528;52.124;5.196;2023-07-29T02:42:59;7.18;;;2.30;;
20734;SDS011;10528;52.124;5.196;2023-07-29T02:45:26;3.53;;;1.95;;
20734;SDS011;10528;52.124;5.196;2023-07-29T02:47:53;5.35;;;2.30;;
20734;SDS011;10528;52.124;5.196;2023-07-29T02:50:20;3.58;;;1.90;;
20734;SDS011;10528;52.124;5.196;2023-07-29T02:52:49;5.30;;;2.45;;
20734;SDS011;10528;52.124;5.196;2023-07-29T02:55:17;4.68;;;2.05;;
20734;SDS011;10528;52.124;5.196;2023-07-29T02:57:44;5.82;;;1.98;;
20734;SDS011;10528;52.124;5.196;2023-07-29T03:00:11;6.35;;;2.40;;
20734;SDS011;10528;52.124;5.196;2023-07-29T03:02:39;4.35;;;1.63;;
20734;SDS011;10528;52.124;5.196;2023-07-29T03:05:06;4.18;;;1.77;;
20734;SDS011;10528;52.124;5.196;2023-07-29T03:07:34;5.53;;;1.67;;
20734;SDS011;10528;52.124;5.196;2023-07-29T03:10:01;3.30;;;1.77;;
20734;SDS011;10528;52.124;5.196;2023-07-29T03:12:28;4.05;;;1.92;;
20734;SDS011;10528;52.124;5.196;2023-07-29T03:14:55;4.10;;;1.95;;
20734;SDS011;10528;52.124;5.196;2023-07-29T03:17:22;2.40;;;1.60;;
20734;SDS011;10528;52.124;5.196;2023-07-29T03:19:49;4.55;;;1.90;;
20734;SDS011;10528;52.124;5.196;2023-07-29T03:22:16;4.32;;;1.88;;
20734;SDS011;10528;52.124;5.196;2023-07-29T03:24:43;3.60;;;1.60;;
20734;SDS011;10528;52.124;5.196;2023-07-29T03:27:10;2.65;;;1.45;;
20734;SDS011;10528;52.124;5.196;2023-07-29T03:29:37;2.63;;;1.70;;
20734;SDS011;10528;52.124;5.196;2023-07-29T03:32:04;3.35;;;1.85;;
20734;SDS011;10528;52.124;5.196;2023-07-29T03:34:31;3.03;;;1.73;;
20734;SDS011;10528;52.124;5.196;2023-07-29T03:36:59;4.40;;;1.70;;
20734;SDS011;10528;52.124;5.196;2023-07-29T03:39:27;3.70;;;1.95;;
20734;SDS011;10528;52.124;5.196;2023-07-29T03:41:54;3.40;;;1.80;;
20734;SDS011;10528;52.124;5.196;2023-07-29T03:44:21;4.03;;;1.60;;
20734;SDS011;10528;52.124;5.196;2023-07-29T03:46:48;3.88;;;1.42;;
20734;SDS011;10528;52.124;5.196;2023-07-29T03:49:15;3.92;;;2.00;;
20734;SDS011;10528;52.124;5.196;2023-07-29T03:51:42;3.00;;;1.83;;
20734;SDS011;10528;52.124;5.196;2023-07-29T03:54:09;4.03;;;2.00;;
20734;SDS011;10528;52.124;5.196;2023-07-29T03:56:36;3.35;;;2.00;;
20734;SDS011;10528;52.124;5.196;2023-07-29T03:59:05;3.05;;;1.98;;
20734;SDS011;10528;52.124;5.196;2023-07-29T04:01:33;3.72;;;2.25;;
20734;SDS011;10528;52.124;5.196;2023-07-29T04:04:00;4.53;;;2.10;;
20734;SDS011;10528;52.124;5.196;2023-07-29T04:06:27;3.97;;;2.10;;
20734;SDS011;10528;52.124;5.196;2023-07-29T04:08:55;3.83;;;1.80;;
20734;SDS011;10528;52.124;5.196;2023-07-29T04:11:22;4.85;;;1.70;;
20734;SDS011;10528;52.124;5.196;2023-07-29T04:13:50;3.85;;;2.00;;
20734;SDS011;10528;52.124;5.196;2023-07-29T04:16:17;3.60;;;1.50;;
20734;SDS011;10528;52.124;5.196;2023-07-29T04:18:45;5.13;;;1.83;;
20734;SDS011;10528;52.124;5.196;2023-07-29T04:21:12;2.40;;;1.48;;
20734;SDS011;10528;52.124;5.196;2023-07-29T04:23:39;3.45;;;1.98;;
20734;SDS011;10528;52.124;5.196;2023-07-29T04:26:06;3.53;;;1.80;;
20734;SDS011;10528;52.124;5.196;2023-07-29T04:28:33;3.53;;;1.70;;
20734;SDS011;10528;52.124;5.196;2023-07-29T04:31:00;4.00;;;1.85;;
20734;SDS011;10528;52.124;5.196;2023-07-29T04:33:28;3.45;;;1.83;;
20734;SDS011;10528;52.124;5.196;2023-07-29T04:35:59;3.85;;;2.30;;
20734;SDS011;10528;52.124;5.196;2023-07-29T04:38:31;3.97;;;1.88;;
20734;SDS011;10528;52.124;5.196;2023-07-29T04:40:59;2.92;;;1.63;;
20734;SDS011;10528;52.124;5.196;2023-07-29T04:43:30;4.05;;;1.90;;
20734;SDS011;10528;52.124;5.196;2023-07-29T04:45:58;3.35;;;1.90;;
20734;SDS011;10528;52.124;5.196;2023-07-29T04:48:26;2.83;;;1.88;;
20734;SDS011;10528;52.124;5.196;2023-07-29T04:50:53;3.08;;;1.75;;
20734;SDS011;10528;52.124;5.196;2023-07-29T04:53:20;3.55;;;2.15;;
20734;SDS011;10528;52.124;5.196;2023-07-29T04:55:47;3.80;;;2.00;;
20734;SDS011;10528;52.124;5.196;2023-07-29T04:58:14;5.00;;;1.95;;
20734;SDS011;10528;52.124;5.196;2023-07-29T05:00:42;4.65;;;2.70;;
20734;SDS011;10528;52.124;5.196;2023-07-29T05:03:09;3.90;;;2.28;;
20734;SDS011;10528;52.124;5.196;2023-07-29T05:05:36;5.20;;;2.47;;
20734;SDS011;10528;52.124;5.196;2023-07-29T05:08:03;5.15;;;2.50;;
20734;SDS011;10528;52.124;5.196;2023-07-29T05:10:30;3.90;;;2.20;;
20734;SDS011;10528;52.124;5.196;2023-07-29T05:12:57;4.65;;;2.08;;
20734;SDS011;10528;52.124;5.196;2023-07-29T05:15:24;4.85;;;2.40;;
20734;SDS011;10528;52.124;5.196;2023-07-29T05:17:51;4.25;;;2.20;;
20734;SDS011;10528;52.124;5.196;2023-07-29T05:20:18;5.45;;;2.58;;
20734;SDS011;10528;52.124;5.196;2023-07-29T05:22:45;4.15;;;2.65;;
20734;SDS011;10528;52.124;5.196;2023-07-29T05:25:12;5.63;;;2.70;;
20734;SDS011;10528;52.124;5.196;2023-07-29T05:27:39;5.47;;;2.72;;
20734;SDS011;10528;52.124;5.196;2023-07-29T05:30:07;5.55;;;2.75;;
20734;SDS011;10528;52.124;5.196;2023-07-29T05:32:35;4.00;;;2.67;;
20734;SDS011;10528;52.124;5.196;2023-07-29T05:35:02;7.28;;;3.22;;
20734;SDS011;10528;52.124;5.196;2023-07-29T05:37:30;4.47;;;2.83;;
20734;SDS011;10528;52.124;5.196;2023-07-29T05:39:57;5.20;;;3.17;;
20734;SDS011;10528;52.124;5.196;2023-07-29T05:42:25;6.57;;;3.28;;
20734;SDS011;10528;52.124;5.196;2023-07-29T05:44:52;5.88;;;2.53;;
20734;SDS011;10528;52.124;5.196;2023-07-29T05:47:19;5.95;;;2.72;;
20734;SDS011;10528;52.124;5.196;2023-07-29T05:49:46;6.65;;;3.03;;
20734;SDS011;10528;52.124;5.196;2023-07-29T05:52:13;5.72;;;2.45;;
20734;SDS011;10528;52.124;5.196;2023-07-29T05:54:40;6.88;;;3.00;;
20734;SDS011;10528;52.124;5.196;2023-07-29T05:57:09;6.88;;;3.22;;
20734;SDS011;10528;52.124;5.196;2023-07-29T05:59:38;5.22;;;2.72;;
20734;SDS011;10528;52.124;5.196;2023-07-29T06:02:05;5.95;;;3.10;;
20734;SDS011;10528;52.124;5.196;2023-07-29T06:04:33;7.28;;;3.17;;
20734;SDS011;10528;52.124;5.196;2023-07-29T06:07:00;5.88;;;3.00;;
20734;SDS011;10528;52.124;5.196;2023-07-29T06:09:27;8.20;;;4.95;;
20734;SDS011;10528;52.124;5.196;2023-07-29T06:11:53;6.72;;;3.38;;
20734;SDS011;10528;52.124;5.196;2023-07-29T06:14:21;6.30;;;3.20;;
20734;SDS011;10528;52.124;5.196;2023-07-29T06:16:48;6.53;;;3.17;;
20734;SDS011;10528;52.124;5.196;2023-07-29T06:19:15;4.53;;;2.78;;
20734;SDS011;10528;52.124;5.196;2023-07-29T06:21:42;3.65;;;2.60;;
20734;SDS011;10528;52.124;5.196;2023-07-29T06:24:09;6.88;;;3.40;;
20734;SDS011;10528;52.124;5.196;2023-07-29T06:26:36;7.25;;;3.97;;
20734;SDS011;10528;52.124;5.196;2023-07-29T06:29:04;6.13;;;2.85;;
20734;SDS011;10528;52.124;5.196;2023-07-29T06:31:31;8.40;;;4.72;;
20734;SDS011;10528;52.124;5.196;2023-07-29T06:33:59;7.72;;;4.40;;
20734;SDS011;10528;52.124;5.196;2023-07-29T06:36:26;7.05;;;3.92;;
20734;SDS011;10528;52.124;5.196;2023-07-29T06:38:53;5.72;;;3.70;;
20734;SDS011;10528;52.124;5.196;2023-07-29T06:41:20;6.93;;;3.55;;
20734;SDS011;10528;52.124;5.196;2023-07-29T06:43:46;6.75;;;3.13;;
20734;SDS011;10528;52.124;5.196;2023-07-29T06:46:13;6.18;;;3.22;;
20734;SDS011;10528;52.124;5.196;2023-07-29T06:48:40;5.88;;;3.55;;
20734;SDS011;10528;52.124;5.196;2023-07-29T06:51:07;7.03;;;3.42;;
20734;SDS011;10528;52.124;5.196;2023-07-29T06:53:34;9.18;;;4.03;;
20734;SDS011;10528;52.124;5.196;2023-07-29T06:56:01;6.90;;;3.53;;
20734;SDS011;10528;52.124;5.196;2023-07-29T06:58:28;6.68;;;3.08;;
20734;SDS011;10528;52.124;5.196;2023-07-29T07:00:55;6.20;;;3.50;;
20734;SDS011;10528;52.124;5.196;2023-07-29T07:03:23;6.63;;;3.47;;
20734;SDS011;10528;52.124;5.196;2023-07-29T07:05:50;4.53;;;2.63;;
20734;SDS011;10528;52.124;5.196;2023-07-29T07:08:17;6.68;;;2.85;;
20734;SDS011;10528;52.124;5.196;2023-07-29T07:10:46;5.30;;;3.35;;
20734;SDS011;10528;52.124;5.196;2023-07-29T07:13:14;7.95;;;4.22;;
20734;SDS011;10528;52.124;5.196;2023-07-29T07:15:40;5.78;;;3.03;;
20734;SDS011;10528;52.124;5.196;2023-07-29T07:18:07;5.30;;;3.30;;
20734;SDS011;10528;52.124;5.196;2023-07-29T07:20:35;6.88;;;3.78;;
20734;SDS011;10528;52.124;5.196;2023-07-29T07:23:03;5.60;;;3.50;;
20734;SDS011;10528;52.124;5.196;2023-07-29T07:25:31;6.32;;;3.30;;
20734;SDS011;10528;52.124;5.196;2023-07-29T07:27:58;7.03;;;3.75;;
20734;SDS011;10528;52.124;5.196;2023-07-29T07:30:25;9.05;;;3.53;;
20734;SDS011;10528;52.124;5.196;2023-07-29T07:32:52;6.40;;;3.20;;
20734;SDS011;10528;52.124;5.196;2023-07-29T07:35:19;4.70;;;3.15;;
20734;SDS011;10528;52.124;5.196;2023-07-29T07:37:46;9.52;;;3.50;;
20734;SDS011;10528;52.124;5.196;2023-07-29T07:40:13;6.32;;;3.55;;
20734;SDS011;10528;52.124;5.196;2023-07-29T07:42:40;7.00;;;3.13;;
20734;SDS011;10528;52.124;5.196;2023-07-29T07:45:07;5.53;;;3.08;;
20734;SDS011;10528;52.124;5.196;2023-07-29T07:47:34;7.97;;;3.40;;
20734;SDS011;10528;52.124;5.196;2023-07-29T07:50:01;5.00;;;3.08;;
20734;SDS011;10528;52.124;5.196;2023-07-29T07:52:29;6.95;;;3.75;;
20734;SDS011;10528;52.124;5.196;2023-07-29T07:54:56;3.47;;;2.78;;
20734;SDS011;10528;52.124;5.196;2023-07-29T07:57:22;3.60;;;3.17;;
20734;SDS011;10528;52.124;5.196;2023-07-29T07:59:49;4.53;;;3.50;;
20734;SDS011;10528;52.124;5.196;2023-07-29T08:02:18;5.35;;;3.63;;
20734;SDS011;10528;52.124;5.196;2023-07-29T08:04:46;6.18;;;3.42;;
20734;SDS011;10528;52.124;5.196;2023-07-29T08:07:13;6.38;;;3.47;;
20734;SDS011;10528;52.124;5.196;2023-07-29T08:09:40;6.60;;;3.10;;
20734;SDS011;10528;52.124;5.196;2023-07-29T08:12:07;7.10;;;3.00;;
20734;SDS011;10528;52.124;5.196;2023-07-29T08:14:34;8.55;;;2.60;;
20734;SDS011;10528;52.124;5.196;2023-07-29T08:17:01;10.50;;;2.30;;
20734;SDS011;10528;52.124;5.196;2023-07-29T08:19:30;5.65;;;2.40;;
20734;SDS011;10528;52.124;5.196;2023-07-29T08:21:57;3.65;;;2.20;;
20734;SDS011;10528;52.124;5.196;2023-07-29T08:24:24;5.43;;;2.40;;
20734;SDS011;10528;52.124;5.196;2023-07-29T08:26:51;4.22;;;2.10;;
20734;SDS011;10528;52.124;5.196;2023-07-29T08:29:18;3.95;;;2.38;;
20734;SDS011;10528;52.124;5.196;2023-07-29T08:31:45;4.00;;;1.80;;
20734;SDS011;10528;52.124;5.196;2023-07-29T08:34:12;3.30;;;2.13;;
20734;SDS011;10528;52.124;5.196;2023-07-29T08:36:39;3.90;;;2.42;;
20734;SDS011;10528;52.124;5.196;2023-07-29T08:39:06;6.25;;;2.33;;
20734;SDS011;10528;52.124;5.196;2023-07-29T08:44:26;4.15;;;2.35;;
20734;SDS011;10528;52.124;5.196;2023-07-29T08:47:02;5.43;;;2.13;;
20734;SDS011;10528;52.124;5.196;2023-07-29T08:49:29;7.47;;;2.33;;
20734;SDS011;10528;52.124;5.196;2023-07-29T08:51:57;4.88;;;2.17;;
20734;SDS011;10528;52.124;5.196;2023-07-29T08:54:25;5.47;;;2.55;;
20734;SDS011;10528;52.124;5.196;2023-07-29T08:56:52;6.60;;;2.35;;
20734;SDS011;10528;52.124;5.196;2023-07-29T08:59:19;5.80;;;2.40;;
20734;SDS011;10528;52.124;5.196;2023-07-29T09:01:47;4.65;;;2.20;;
20734;SDS011;10528;52.124;5.196;2023-07-29T09:04:14;4.80;;;2.42;;
20734;SDS011;10528;52.124;5.196;2023-07-29T09:06:42;3.25;;;2.40;;
20734;SDS011;10528;52.124;5.196;2023-07-29T09:09:11;3.58;;;2.10;;
20734;SDS011;10528;52.124;5.196;2023-07-29T09:11:38;3.83;;;2.25;;
20734;SDS011;10528;52.124;5.196;2023-07-29T09:14:05;7.72;;;2.83;;
20734;SDS011;10528;52.124;5.196;2023-07-29T09:16:32;5.45;;;2.58;;
20734;SDS011;10528;52.124;5.196;2023-07-29T09:19:02;4.40;;;2.28;;
20734;SDS011;10528;52.124;5.196;2023-07-29T09:21:29;5.25;;;2.80;;
20734;SDS011;10528;52.124;5.196;2023-07-29T09:23:57;7.43;;;2.72;;
20734;SDS011;10528;52.124;5.196;2023-07-29T09:26:33;4.38;;;2.50;;
20734;SDS011;10528;52.124;5.196;2023-07-29T09:29:01;3.88;;;2.33;;
20734;SDS011;10528;52.124;5.196;2023-07-29T09:31:29;6.00;;;2.55;;
20734;SDS011;10528;52.124;5.196;2023-07-29T09:34:01;4.53;;;2.38;;
20734;SDS011;10528;52.124;5.196;2023-07-29T09:36:30;4.47;;;2.53;;
20734;SDS011;10528;52.124;5.196;2023-07-29T09:38:59;6.78;;;2.85;;
20734;SDS011;10528;52.124;5.196;2023-07-29T09:41:27;3.33;;;2.60;;
20734;SDS011;10528;52.124;5.196;2023-07-29T09:43:58;4.78;;;2.85;;
20734;SDS011;10528;52.124;5.196;2023-07-29T09:46:37;5.68;;;2.70;;
20734;SDS011;10528;52.124;5.196;2023-07-29T09:49:06;4.00;;;2.40;;
20734;SDS011;10528;52.124;5.196;2023-07-29T09:51:38;4.65;;;2.13;;
20734;SDS011;10528;52.124;5.196;2023-07-29T09:54:06;3.85;;;2.58;;
20734;SDS011;10528;52.124;5.196;2023-07-29T09:56:34;5.05;;;2.80;;
20734;SDS011;10528;52.124;5.196;2023-07-29T09:59:09;5.85;;;2.45;;
20734;SDS011;10528;52.124;5.196;2023-07-29T10:01:37;3.42;;;2.38;;
20734;SDS011;10528;52.124;5.196;2023-07-29T10:04:06;3.80;;;2.50;;
20734;SDS011;10528;52.124;5.196;2023-07-29T10:06:38;4.57;;;2.38;;
20734;SDS011;10528;52.124;5.196;2023-07-29T10:09:08;4.20;;;2.30;;
20734;SDS011;10528;52.124;5.196;2023-07-29T10:11:39;5.25;;;2.42;;
20734;SDS011;10528;52.124;5.196;2023-07-29T10:14:08;4.63;;;2.08;;
20734;SDS011;10528;52.124;5.196;2023-07-29T10:16:39;5.90;;;2.47;;
20734;SDS011;10528;52.124;5.196;2023-07-29T10:19:08;5.03;;;2.40;;
20734;SDS011;10528;52.124;5.196;2023-07-29T10:21:36;5.03;;;2.63;;
20734;SDS011;10528;52.124;5.196;2023-07-29T10:24:09;6.93;;;3.22;;
20734;SDS011;10528;52.124;5.196;2023-07-29T10:26:45;4.70;;;2.70;;
20734;SDS011;10528;52.124;5.196;2023-07-29T10:29:18;5.25;;;2.83;;
20734;SDS011;10528;52.124;5.196;2023-07-29T10:31:48;4.15;;;2.90;;
20734;SDS011;10528;52.124;5.196;2023-07-29T10:34:20;4.55;;;3.08;;
20734;SDS011;10528;52.124;5.196;2023-07-29T10:36:49;4.35;;;2.97;;
20734;SDS011;10528;52.124;5.196;2023-07-29T10:39:18;5.55;;;3.42;;
20734;SDS011;10528;52.124;5.196;2023-07-29T10:41:59;5.32;;;3.30;;
20734;SDS011;10528;52.124;5.196;2023-07-29T10:47:16;5.38;;;3.40;;
20734;SDS011;10528;52.124;5.196;2023-07-29T10:49:54;4.85;;;3.58;;
20734;SDS011;10528;52.124;5.196;2023-07-29T10:55:01;4.75;;;3.45;;
20734;SDS011;10528;52.124;5.196;2023-07-29T10:57:37;5.32;;;3.08;;
20734;SDS011;10528;52.124;5.196;2023-07-29T11:00:07;5.30;;;2.22;;
20734;SDS011;10528;52.124;5.196;2023-07-29T11:02:35;3.05;;;2.03;;
20734;SDS011;10528;52.124;5.196;2023-07-29T11:05:04;3.83;;;1.98;;
20734;SDS011;10528;52.124;5.196;2023-07-29T11:07:47;3.17;;;1.88;;
20734;SDS011;10528;52.124;5.196;2023-07-29T11:10:16;4.38;;;1.60;;
20734;SDS011;10528;52.124;5.196;2023-07-29T11:12:44;1.95;;;1.40;;
20734;SDS011;10528;52.124;5.196;2023-07-29T11:15:24;2.58;;;1.30;;
20734;SDS011;10528;52.124;5.196;2023-07-29T11:17:57;4.03;;;1.40;;
20734;SDS011;10528;52.124;5.196;2023-07-29T11:20:32;2.08;;;1.27;;
20734;SDS011;10528;52.124;5.196;2023-07-29T11:23:00;2.53;;;1.23;;
20734;SDS011;10528;52.124;5.196;2023-07-29T11:25:30;3.15;;;1.20;;
20734;SDS011;10528;52.124;5.196;2023-07-29T11:27:59;2.63;;;1.00;;
20734;SDS011;10528;52.124;5.196;2023-07-29T11:30:31;2.83;;;1.00;;
20734;SDS011;10528;52.124;5.196;2023-07-29T11:33:00;2.13;;;1.30;;
20734;SDS011;10528;52.124;5.196;2023-07-29T11:35:27;3.97;;;2.00;;
20734;SDS011;10528;52.124;5.196;2023-07-29T11:37:54;1.25;;;0.90;;
20734;SDS011;10528;52.124;5.196;2023-07-29T11:40:24;1.30;;;0.73;;
20734;SDS011;10528;52.124;5.196;2023-07-29T11:42:52;1.45;;;0.70;;
20734;SDS011;10528;52.124;5.196;2023-07-29T11:45:20;2.55;;;1.08;;
20734;SDS011;10528;52.124;5.196;2023-07-29T11:47:57;2.40;;;1.50;;
20734;SDS011;10528;52.124;5.196;2023-07-29T11:50:25;1.50;;;1.30;;
20734;SDS011;10528;52.124;5.196;2023-07-29T11:52:52;2.45;;;1.40;;
20734;SDS011;10528;52.124;5.196;2023-07-29T11:55:20;2.97;;;1.50;;
20734;SDS011;10528;52.124;5.196;2023-07-29T11:57:48;2.38;;;1.50;;
20734;SDS011;10528;52.124;5.196;2023-07-29T12:00:18;7.13;;;2.00;;
20734;SDS011;10528;52.124;5.196;2023-07-29T12:02:48;2.95;;;1.55;;
20734;SDS011;10528;52.124;5.196;2023-07-29T12:05:16;4.47;;;1.50;;
20734;SDS011;10528;52.124;5.196;2023-07-29T12:07:47;2.05;;;1.52;;
20734;SDS011;10528;52.124;5.196;2023-07-29T12:10:14;2.08;;;1.30;;
20734;SDS011;10528;52.124;5.196;2023-07-29T12:12:48;1.27;;;1.08;;
20734;SDS011;10528;52.124;5.196;2023-07-29T12:15:25;3.25;;;1.88;;
20734;SDS011;10528;52.124;5.196;2023-07-29T12:17:58;3.97;;;1.50;;
20734;SDS011;10528;52.124;5.196;2023-07-29T12:20:26;2.35;;;1.27;;
20734;SDS011;10528;52.124;5.196;2023-07-29T12:22:57;1.45;;;1.10;;
20734;SDS011;10528;52.124;5.196;2023-07-29T12:25:28;2.58;;;1.20;;
20734;SDS011;10528;52.124;5.196;2023-07-29T12:27:56;3.10;;;1.48;;
20734;SDS011;10528;52.124;5.196;2023-07-29T12:30:32;2.63;;;1.58;;
20734;SDS011;10528;52.124;5.196;2023-07-29T12:32:59;2.78;;;1.60;;
20734;SDS011;10528;52.124;5.196;2023-07-29T12:35:33;2.80;;;1.70;;
20734;SDS011;10528;52.124;5.196;2023-07-29T12:38:04;2.42;;;1.55;;
20734;SDS011;10528;52.124;5.196;2023-07-29T12:40:31;2.80;;;1.50;;
20734;SDS011;10528;52.124;5.196;2023-07-29T12:42:58;2.40;;;1.60;;
20734;SDS011;10528;52.124;5.196;2023-07-29T12:45:26;3.17;;;1.73;;
20734;SDS011;10528;52.124;5.196;2023-07-29T12:47:55;2.33;;;1.60;;
20734;SDS011;10528;52.124;5.196;2023-07-29T12:50:23;1.98;;;1.40;;
20734;SDS011;10528;52.124;5.196;2023-07-29T12:52:49;2.22;;;1.40;;
20734;SDS011;10528;52.124;5.196;2023-07-29T12:55:16;2.92;;;1.52;;
20734;SDS011;10528;52.124;5.196;2023-07-29T12:57:49;1.88;;;1.40;;
20734;SDS011;10528;52.124;5.196;2023-07-29T13:00:17;3.63;;;1.40;;
20734;SDS011;10528;52.124;5.196;2023-07-29T13:02:44;3.22;;;1.70;;
20734;SDS011;10528;52.124;5.196;2023-07-29T13:05:12;2.35;;;1.70;;
20734;SDS011;10528;52.124;5.196;2023-07-29T13:07:39;2.33;;;1.60;;
20734;SDS011;10528;52.124;5.196;2023-07-29T13:10:07;2.95;;;1.73;;
20734;SDS011;10528;52.124;5.196;2023-07-29T13:12:36;5.25;;;1.70;;
20734;SDS011;10528;52.124;5.196;2023-07-29T13:15:03;2.13;;;1.40;;
20734;SDS011;10528;52.124;5.196;2023-07-29T13:17:31;1.70;;;1.33;;
20734;SDS011;10528;52.124;5.196;2023-07-29T13:19:59;2.63;;;1.60;;
20734;SDS011;10528;52.124;5.196;2023-07-29T13:22:26;4.82;;;1.83;;
20734;SDS011;10528;52.124;5.196;2023-07-29T13:24:53;2.47;;;1.38;;
20734;SDS011;10528;52.124;5.196;2023-07-29T13:27:20;2.80;;;1.35;;
20734;SDS011;10528;52.124;5.196;2023-07-29T13:29:46;2.25;;;1.50;;
20734;SDS011;10528;52.124;5.196;2023-07-29T13:32:13;2.75;;;1.65;;
20734;SDS011;10528;52.124;5.196;2023-07-29T13:34:40;3.13;;;1.80;;
20734;SDS011;10528;52.124;5.196;2023-07-29T13:37:07;2.67;;;1.60;;
20734;SDS011;10528;52.124;5.196;2023-07-29T13:39:34;2.47;;;1.60;;
20734;SDS011;10528;52.124;5.196;2023-07-29T13:42:01;3.95;;;1.92;;
20734;SDS011;10528;52.124;5.196;2023-07-29T13:44:28;2.45;;;1.75;;
20734;SDS011;10528;52.124;5.196;2023-07-29T13:46:55;2.78;;;1.50;;
20734;SDS011;10528;52.124;5.196;2023-07-29T13:49:22;1.90;;;1.50;;
20734;SDS011;10528;52.124;5.196;2023-07-29T13:51:49;2.97;;;1.65;;
20734;SDS011;10528;52.124;5.196;2023-07-29T13:54:16;2.60;;;1.75;;
20734;SDS011;10528;52.124;5.196;2023-07-29T13:56:43;2.45;;;1.70;;
20734;SDS011;10528;52.124;5.196;2023-07-29T13:59:10;2.88;;;1.70;;
20734;SDS011;10528;52.124;5.196;2023-07-29T14:01:37;3.78;;;2.05;;
20734;SDS011;10528;52.124;5.196;2023-07-29T14:04:04;2.95;;;1.30;;
20734;SDS011;10528;52.124;5.196;2023-07-29T14:06:32;2.13;;;1.30;;
20734;SDS011;10528;52.124;5.196;2023-07-29T14:09:11;2.60;;;1.40;;
20734;SDS011;10528;52.124;5.196;2023-07-29T14:11:38;2.28;;;1.35;;
20734;SDS011;10528;52.124;5.196;2023-07-29T14:14:05;3.58;;;1.23;;
20734;SDS011;10528;52.124;5.196;2023-07-29T14:16:33;2.10;;;1.20;;
20734;SDS011;10528;52.124;5.196;2023-07-29T14:19:01;1.45;;;1.30;;
20734;SDS011;10528;52.124;5.196;2023-07-29T14:21:28;3.60;;;1.20;;
20734;SDS011;10528;52.124;5.196;2023-07-29T14:23:55;2.13;;;1.20;;
20734;SDS011;10528;52.124;5.196;2023-07-29T14:26:22;2.88;;;1.02;;
20734;SDS011;10528;52.124;5.196;2023-07-29T14:28:49;2.60;;;1.08;;
20734;SDS011;10528;52.124;5.196;2023-07-29T14:31:16;2.65;;;1.05;;
20734;SDS011;10528;52.124;5.196;2023-07-29T14:33:43;3.22;;;1.10;;
20734;SDS011;10528;52.124;5.196;2023-07-29T14:36:10;2.35;;;0.98;;
20734;SDS011;10528;52.124;5.196;2023-07-29T14:38:37;1.60;;;0.90;;
20734;SDS011;10528;52.124;5.196;2023-07-29T14:41:04;1.90;;;1.08;;
20734;SDS011;10528;52.124;5.196;2023-07-29T14:43:31;1.50;;;0.82;;
20734;SDS011;10528;52.124;5.196;2023-07-29T14:45:58;2.35;;;1.10;;
20734;SDS011;10528;52.124;5.196;2023-07-29T14:48:25;4.68;;;1.10;;
20734;SDS011;10528;52.124;5.196;2023-07-29T14:50:52;3.30;;;1.08;;
20734;SDS011;10528;52.124;5.196;2023-07-29T14:53:19;2.10;;;0.88;;
20734;SDS011;10528;52.124;5.196;2023-07-29T14:55:47;2.88;;;1.10;;
20734;SDS011;10528;52.124;5.196;2023-07-29T14:58:14;3.63;;;1.15;;
20734;SDS011;10528;52.124;5.196;2023-07-29T15:00:41;1.90;;;1.02;;
20734;SDS011;10528;52.124;5.196;2023-07-29T15:03:08;1.75;;;0.90;;
20734;SDS011;10528;52.124;5.196;2023-07-29T15:05:36;2.03;;;1.10;;
20734;SDS011;10528;52.124;5.196;2023-07-29T15:08:02;1.95;;;0.82;;
20734;SDS011;10528;52.124;5.196;2023-07-29T15:10:29;1.23;;;0.95;;